Terminal Aerodrome Forecast
Issued by NWS

Home | Current Version | Previous Version | Graphics & Text | Print | Product List | Glossary On
Versions: 1 2 3 4 5 6 7 8 9 10 11 12 13 14
863
FTUS43 KUNR 042320
TAFGCC
TAF
KGCC 042320Z 0500/0524 21012KT P6SM BKN100
     FM050400 29015KT P6SM VCSH BKN060
      TEMPO 0504/0508 5SM -SHSN BKN035
     FM051600 27009KT P6SM SCT150=

USA.gov is the U.S. government's official web portal to all federal, state and local government web resources and services.